Time;durP1;ratioP1;P1;durP2;ratioP2;P2;SDS_P1;SDS_P2;PMS_P1;PMS_P2;Temp;Humidity;BMP_temperature;BMP_pressure;BME280_temperature;BME280_humidity;BME280_pressure;Samples;Min_cycle;Max_cycle;Signal;HPM_P1;HPM_P2
2024/02/02 00:01:30;;;;;;;15.17;4.57;;;;;;;6.04;86.25;101954.56;5026957;28;20676;-77
2024/02/02 00:03:57;;;;;;;15.97;4.47;;;;;;;6.23;85.36;101965.38;5016443;28;20286;-77
2024/02/02 00:06:25;;;;;;;16.53;4.03;;;;;;;5.82;86.02;101967.81;5015381;28;20250;-77
2024/02/02 00:08:51;;;;;;;12.27;4.17;;;;;;;6.11;85.58;101965.97;5015750;28;20269;-77
2024/02/02 00:11:18;;;;;;;19.97;4.30;;;;;;;6.14;86.01;101977.28;5031157;28;20276;-76
2024/02/02 00:13:44;;;;;;;16.47;3.77;;;;;;;6.35;84.89;101984.69;5035510;28;20206;-77
2024/02/02 00:16:10;;;;;;;10.83;3.50;;;;;;;6.36;83.92;102001.13;5035226;28;20230;-77
2024/02/02 00:18:36;;;;;;;11.97;4.03;;;;;;;6.41;83.97;102016.81;5035870;28;20252;-77
2024/02/02 00:21:03;;;;;;;11.93;3.97;;;;;;;6.36;83.85;102029.66;5035494;28;20256;-77
2024/02/02 00:23:30;;;;;;;13.60;4.70;;;;;;;6.43;82.46;102030.69;5035719;28;20264;-77
2024/02/02 00:25:57;;;;;;;12.87;4.20;;;;;;;6.55;83.48;102046.53;5035309;28;20606;-77
2024/02/02 00:28:23;;;;;;;12.20;4.10;;;;;;;6.47;82.68;102050.66;5038675;28;20263;-77
2024/02/02 00:30:49;;;;;;;15.87;3.70;;;;;;;6.53;81.77;102064.66;5034304;28;20202;-77
2024/02/02 00:33:16;;;;;;;13.83;3.83;;;;;;;6.40;82.52;102066.91;5035620;28;20634;-77
2024/02/02 00:35:42;;;;;;;15.40;4.50;;;;;;;6.10;83.36;102073.06;5035314;28;20226;-77
2024/02/02 00:38:08;;;;;;;19.00;4.77;;;;;;;6.08;83.59;102057.47;5035393;28;20198;-77
2024/02/02 00:40:36;;;;;;;15.70;5.00;;;;;;;6.01;84.22;102037.44;5034723;28;20241;-77
2024/02/02 00:43:03;;;;;;;10.77;5.17;;;;;;;6.02;84.64;102043.50;5034543;28;20199;-77
2024/02/02 00:45:29;;;;;;;13.47;5.33;;;;;;;6.03;85.32;102016.75;5035134;28;20242;-77
2024/02/02 00:47:55;;;;;;;18.90;5.20;;;;;;;5.94;85.35;102000.06;5027130;28;20791;-77
2024/02/02 00:50:21;;;;;;;13.50;5.90;;;;;;;5.86;85.73;102005.91;5035086;28;20210;-77
2024/02/02 00:52:49;;;;;;;18.43;5.90;;;;;;;6.00;85.20;101990.75;5040312;28;20274;-77
2024/02/02 00:55:15;;;;;;;14.63;5.60;;;;;;;5.58;85.87;102000.00;5015347;28;20222;-77
2024/02/02 00:57:43;;;;;;;19.03;6.90;;;;;;;5.62;87.53;101957.81;5032461;28;20198;-77
2024/02/02 01:00:10;;;;;;;25.03;7.17;;;;;;;5.75;86.75;101949.50;5034419;28;20702;-76
2024/02/02 01:02:37;;;;;;;17.07;6.17;;;;;;;5.82;87.21;101936.72;5034617;28;20212;-77
2024/02/02 01:05:04;;;;;;;15.37;4.80;;;;;;;5.88;86.83;101934.25;5038325;28;20662;-77
2024/02/02 01:07:31;;;;;;;15.30;5.73;;;;;;;5.64;87.43;101917.25;5014907;28;20285;-77
2024/02/02 01:09:57;;;;;;;17.67;5.63;;;;;;;5.81;87.98;101904.75;5026156;28;20578;-77
2024/02/02 01:12:23;;;;;;;24.57;7.53;;;;;;;5.95;87.35;101905.13;5034484;28;20256;-77
2024/02/02 01:14:51;;;;;;;17.17;7.17;;;;;;;5.98;86.18;101918.13;5033669;28;20557;-77
2024/02/02 01:17:17;;;;;;;25.63;8.10;;;;;;;5.97;86.19;101939.72;5034729;28;20199;-77
2024/02/02 01:19:44;;;;;;;20.70;8.97;;;;;;;6.07;86.88;101938.22;5033999;28;20280;-77
2024/02/02 01:22:10;;;;;;;21.90;9.40;;;;;;;6.02;86.47;101942.41;5034352;28;20202;-77
2024/02/02 01:24:37;;;;;;;19.97;9.93;;;;;;;5.72;87.45;101939.06;5034044;28;20202;-77
2024/02/02 01:27:04;;;;;;;13.10;7.93;;;;;;;5.91;88.20;101906.72;5035818;28;20269;-77
2024/02/02 01:29:33;;;;;;;23.33;8.43;;;;;;;5.84;87.89;101912.56;5035894;28;20685;-77
2024/02/02 01:32:01;;;;;;;17.83;9.80;;;;;;;5.91;87.92;101901.53;5017812;28;20217;-78
2024/02/02 01:34:27;;;;;;;23.93;9.20;;;;;;;6.08;86.85;101911.44;5033979;28;20206;-78
2024/02/02 01:36:53;;;;;;;31.17;10.50;;;;;;;6.13;85.90;101925.41;5033967;28;20237;-77
2024/02/02 01:39:21;;;;;;;21.90;9.00;;;;;;;6.18;86.21;101926.38;5033514;28;20198;-77
2024/02/02 01:41:47;;;;;;;20.63;8.20;;;;;;;6.17;85.94;101942.78;5033755;28;20263;-77
2024/02/02 01:44:13;;;;;;;13.30;7.67;;;;;;;6.02;86.29;101952.78;5034124;28;20234;-77
2024/02/02 01:46:40;;;;;;;16.23;8.83;;;;;;;5.85;86.53;101949.75;5033954;28;20249;-77
2024/02/02 01:49:07;;;;;;;11.50;7.73;;;;;;;6.09;86.27;101931.34;5033887;28;20303;-77
2024/02/02 01:51:34;;;;;;;24.67;8.73;;;;;;;5.94;87.21;101942.19;5033664;28;20206;-78
2024/02/02 01:54:00;;;;;;;18.43;8.27;;;;;;;5.84;87.52;101924.66;5032741;28;20202;-77
2024/02/02 01:56:26;;;;;;;24.77;7.87;;;;;;;5.86;87.70;101907.44;5033427;28;20230;-77
2024/02/02 01:58:53;;;;;;;19.17;8.43;;;;;;;5.97;87.71;101890.47;5033544;28;20198;-78
2024/02/02 02:01:19;;;;;;;12.47;7.33;;;;;;;6.14;86.80;101901.22;5033612;28;20202;-77
2024/02/02 02:03:46;;;;;;;17.50;8.60;;;;;;;6.19;86.17;101920.34;5040796;28;20255;-78
2024/02/02 02:06:14;;;;;;;17.67;7.43;;;;;;;6.25;85.90;101930.00;5033795;28;20218;-78
2024/02/02 02:08:41;;;;;;;15.37;7.47;;;;;;;6.34;86.02;101937.97;5033398;28;20226;-77
2024/02/02 02:11:08;;;;;;;22.00;7.43;;;;;;;6.35;85.56;101950.97;5033287;28;20198;-78
2024/02/02 02:13:35;;;;;;;11.03;7.07;;;;;;;6.40;84.50;101961.44;5033232;28;20661;-77
2024/02/02 02:16:01;;;;;;;15.30;8.50;;;;;;;6.44;84.47;101964.97;5025049;28;20280;-77
2024/02/02 02:18:28;;;;;;;14.60;7.30;;;;;;;6.31;85.07;101964.72;5032704;28;20600;-77
2024/02/02 02:20:55;;;;;;;15.20;6.87;;;;;;;6.08;85.69;101965.88;5033284;28;20206;-77
2024/02/02 02:23:23;;;;;;;18.63;6.77;;;;;;;6.04;86.90;101954.56;5033021;28;20207;-77
2024/02/02 02:25:49;;;;;;;15.03;6.97;;;;;;;6.13;86.00;101918.50;5032520;28;20811;-77
2024/02/02 02:28:15;;;;;;;15.47;7.03;;;;;;;6.21;86.71;101915.22;5033116;28;20219;-77
2024/02/02 02:30:45;;;;;;;16.83;6.37;;;;;;;6.31;85.98;101925.81;5032827;28;20252;-78
2024/02/02 02:33:11;;;;;;;12.03;6.20;;;;;;;6.12;86.10;101928.81;5032628;28;20238;-77
2024/02/02 02:35:38;;;;;;;14.93;7.27;;;;;;;6.12;85.92;101924.50;5032976;28;20642;-77
2024/02/02 02:38:04;;;;;;;14.13;6.37;;;;;;;6.11;86.39;101916.72;5024559;28;20311;-77
2024/02/02 02:40:32;;;;;;;16.33;7.53;;;;;;;5.85;87.55;101901.38;5032742;28;20207;-77
2024/02/02 02:42:58;;;;;;;14.57;7.67;;;;;;;6.03;87.41;101876.78;5033471;28;20226;-77
2024/02/02 02:45:24;;;;;;;21.03;7.70;;;;;;;6.01;87.69;101871.56;5033019;28;20275;-77
2024/02/02 02:47:51;;;;;;;17.57;7.03;;;;;;;6.06;87.67;101858.69;5032122;28;20226;-77
2024/02/02 02:50:17;;;;;;;20.93;8.10;;;;;;;5.84;88.46;101834.84;5032881;28;20340;-77
2024/02/02 02:52:43;;;;;;;11.23;7.03;;;;;;;5.99;87.90;101834.34;5032702;28;20206;-77
2024/02/02 02:55:10;;;;;;;13.20;7.27;;;;;;;6.13;87.86;101829.47;5032183;28;20229;-78
2024/02/02 02:57:37;;;;;;;23.63;8.10;;;;;;;6.09;87.21;101853.59;5032722;28;20707;-77
2024/02/02 03:00:09;;;;;;;25.70;8.23;;;;;;;6.24;86.50;101850.44;5032830;28;20209;-78
2024/02/02 03:02:35;;;;;;;17.27;7.93;;;;;;;5.84;87.82;101836.56;5032125;28;20240;-77
2024/02/02 03:05:01;;;;;;;26.73;9.03;;;;;;;5.99;88.15;101825.72;5032717;28;20681;-77
2024/02/02 03:07:27;;;;;;;16.27;8.77;;;;;;;5.78;88.11;101821.75;5036484;28;20206;-77
2024/02/02 03:09:54;;;;;;;16.97;9.93;;;;;;;5.84;88.11;101808.06;5036958;28;20214;-77
2024/02/02 03:12:20;;;;;;;25.13;9.83;;;;;;;5.86;88.97;101802.06;5036608;28;20213;-77
2024/02/02 03:14:48;;;;;;;18.60;9.80;;;;;;;5.94;88.31;101797.91;5045341;28;20206;-77
2024/02/02 03:17:14;;;;;;;23.93;10.60;;;;;;;6.05;88.51;101800.78;5036128;28;20280;-78
2024/02/02 03:19:40;;;;;;;14.83;9.97;;;;;;;6.16;88.10;101814.88;5036899;28;20249;-77
2024/02/02 03:22:07;;;;;;;19.97;10.43;;;;;;;6.22;86.65;101819.28;5028191;28;20626;-78
2024/02/02 03:24:33;;;;;;;18.77;11.30;;;;;;;6.11;86.38;101838.94;5036827;28;20237;-78
2024/02/02 03:26:59;;;;;;;25.53;12.33;;;;;;;6.11;87.94;101829.44;5036199;28;20284;-77
2024/02/02 03:29:26;;;;;;;18.03;12.27;;;;;;;6.07;87.53;101817.25;5039874;28;20790;-77
2024/02/02 03:31:53;;;;;;;22.60;12.60;;;;;;;6.01;87.67;101824.91;5031898;28;20232;-77
2024/02/02 03:34:20;;;;;;;24.40;13.93;;;;;;;6.08;88.40;101826.78;5041165;28;20253;-77
2024/02/02 03:36:46;;;;;;;26.57;12.67;;;;;;;6.31;86.44;101842.81;5036288;28;20234;-77
2024/02/02 03:39:12;;;;;;;22.73;12.93;;;;;;;6.08;87.46;101846.63;5036121;28;20253;-77
2024/02/02 03:41:39;;;;;;;24.60;12.70;;;;;;;6.16;87.58;101838.22;5032155;28;20213;-78
2024/02/02 03:44:05;;;;;;;15.77;11.80;;;;;;;6.09;87.57;101851.88;5036370;28;20201;-77
2024/02/02 03:46:32;;;;;;;31.83;12.93;;;;;;;6.02;87.46;101855.16;5035912;28;20229;-77
2024/02/02 03:48:59;;;;;;;24.27;12.77;;;;;;;5.86;87.21;101850.44;5035512;28;20674;-77
2024/02/02 03:51:26;;;;;;;28.77;14.33;;;;;;;5.83;87.95;101839.97;5036081;28;20202;-77
2024/02/02 03:53:52;;;;;;;24.17;13.30;;;;;;;5.83;89.02;101812.38;5035755;28;20343;-77
2024/02/02 03:56:18;;;;;;;23.57;12.73;;;;;;;5.88;88.82;101807.28;5036455;28;20233;-77
2024/02/02 03:58:45;;;;;;;25.20;14.33;;;;;;;5.64;88.74;101811.06;5035880;28;20202;-78
2024/02/02 04:01:11;;;;;;;22.60;14.40;;;;;;;5.78;89.14;101781.16;5035588;28;20204;-77
2024/02/02 04:03:37;;;;;;;21.00;12.77;;;;;;;5.83;88.73;101781.28;5036047;28;20206;-78
2024/02/02 04:06:06;;;;;;;21.47;12.30;;;;;;;5.87;89.05;101787.41;5035771;28;20650;-77
2024/02/02 04:08:32;;;;;;;21.93;13.43;;;;;;;6.08;87.52;101790.47;5036346;28;20280;-78
2024/02/02 04:10:58;;;;;;;18.30;12.53;;;;;;;6.15;86.72;101812.25;5035489;28;20704;-78
2024/02/02 04:13:24;;;;;;;24.70;13.30;;;;;;;5.85;87.42;101813.28;5038491;28;20257;-77
2024/02/02 04:15:51;;;;;;;25.10;12.80;;;;;;;6.09;87.31;101809.53;5044795;28;20238;-77
2024/02/02 04:18:17;;;;;;;20.97;12.90;;;;;;;5.90;87.24;101816.84;5042975;28;20284;-77
2024/02/02 04:20:43;;;;;;;20.40;13.13;;;;;;;5.71;87.75;101802.59;5044622;28;20206;-77
2024/02/02 04:23:11;;;;;;;22.47;14.53;;;;;;;5.71;88.54;101792.25;5046855;28;20791;-77
2024/02/02 04:25:37;;;;;;;21.60;14.40;;;;;;;5.68;87.20;101783.53;5035581;28;20311;-77
2024/02/02 04:28:07;;;;;;;26.67;14.37;;;;;;;5.80;87.42;101777.75;5035495;28;20286;-77
2024/02/02 04:30:35;;;;;;;23.40;15.27;;;;;;;5.77;87.70;101771.66;5030026;28;20250;-77
2024/02/02 04:33:01;;;;;;;19.83;15.83;;;;;;;5.93;87.73;101775.44;5034377;28;20393;-77
2024/02/02 04:35:29;;;;;;;20.80;15.63;;;;;;;6.03;86.83;101791.25;5035458;28;20225;-77
2024/02/02 04:37:56;;;;;;;23.20;15.50;;;;;;;6.11;86.12;101805.25;5035110;28;20216;-77
2024/02/02 04:40:23;;;;;;;20.30;14.77;;;;;;;6.32;86.06;101816.06;5035493;28;20211;-77
2024/02/02 04:42:50;;;;;;;21.87;15.47;;;;;;;6.33;85.31;101835.09;5034295;28;20265;-77
2024/02/02 04:45:17;;;;;;;24.23;17.40;;;;;;;6.19;84.47;101859.84;5015116;28;20305;-77
2024/02/02 04:47:43;;;;;;;27.47;17.63;;;;;;;6.06;84.65;101864.75;5014613;28;20209;-77
2024/02/02 04:50:10;;;;;;;28.87;18.77;;;;;;;6.23;84.62;101857.34;5015380;28;20284;-77
2024/02/02 04:52:36;;;;;;;31.03;18.13;;;;;;;6.07;84.39;101847.50;5029856;28;20206;-77
2024/02/02 04:55:03;;;;;;;23.33;19.27;;;;;;;6.07;85.07;101840.59;5040939;28;20236;-77
2024/02/02 04:57:30;;;;;;;38.07;19.37;;;;;;;5.70;85.85;101837.09;5014813;28;20215;-77
2024/02/02 04:59:57;;;;;;;28.77;17.93;;;;;;;5.94;85.13;101823.84;5032384;28;20266;-77
2024/02/02 05:02:24;;;;;;;31.73;17.50;;;;;;;6.16;83.99;101838.22;5034180;28;20268;-77
2024/02/02 05:04:51;;;;;;;25.80;17.83;;;;;;;5.93;83.01;101867.88;5034928;28;20700;-76
2024/02/02 05:07:17;;;;;;;22.70;16.50;;;;;;;6.16;82.94;101865.81;5034410;28;20704;-77
2024/02/02 05:09:44;;;;;;;24.90;16.67;;;;;;;6.30;82.99;101881.69;5034277;28;20717;-77
2024/02/02 05:12:11;;;;;;;25.17;16.63;;;;;;;6.00;82.36;101881.88;5034385;28;20220;-78
2024/02/02 05:14:38;;;;;;;30.17;16.27;;;;;;;6.08;83.16;101878.59;5034569;28;20245;-77
2024/02/02 05:17:05;;;;;;;26.20;14.87;;;;;;;6.23;81.52;101888.47;5034199;28;20229;-77
2024/02/02 05:19:31;;;;;;;21.07;14.20;;;;;;;6.28;81.16;101909.31;5034970;28;20225;-78
2024/02/02 05:21:57;;;;;;;20.67;14.27;;;;;;;6.42;80.95;101907.00;5034631;28;20260;-78
2024/02/02 05:24:24;;;;;;;23.10;13.77;;;;;;;6.55;80.34;101924.59;5034075;28;20225;-78
2024/02/02 05:26:50;;;;;;;15.03;13.33;;;;;;;6.61;78.68;101958.47;5034029;28;20272;-77
2024/02/02 05:29:16;;;;;;;20.30;12.03;;;;;;;6.53;78.65;101983.38;5023953;28;20229;-78
2024/02/02 05:31:44;;;;;;;29.70;12.67;;;;;;;6.54;78.36;101987.69;5026684;28;20207;-77
2024/02/02 05:34:10;;;;;;;13.47;11.33;;;;;;;6.29;77.40;102026.03;5033793;28;20236;-77
2024/02/02 05:36:36;;;;;;;14.83;11.13;;;;;;;6.54;78.71;102004.16;5034054;28;20292;-77
2024/02/02 05:39:03;;;;;;;12.20;10.77;;;;;;;6.39;77.97;102024.53;5033962;28;20245;-77
2024/02/02 05:41:29;;;;;;;17.23;11.30;;;;;;;6.38;78.73;102024.50;5033794;28;20230;-77
2024/02/02 05:43:55;;;;;;;20.30;11.57;;;;;;;6.42;78.59;102019.44;5041737;28;20206;-77
2024/02/02 05:46:22;;;;;;;20.53;11.00;;;;;;;6.34;78.62;102031.31;5025837;28;20296;-77
2024/02/02 05:48:49;;;;;;;19.00;11.63;;;;;;;6.40;78.62;102028.00;5033580;28;20655;-77
2024/02/02 05:51:16;;;;;;;18.63;10.90;;;;;;;6.59;78.14;102018.94;5033863;28;20260;-77
2024/02/02 05:53:42;;;;;;;14.77;11.43;;;;;;;6.45;78.20;102019.50;5034269;28;20237;-77
2024/02/02 05:56:08;;;;;;;13.70;10.53;;;;;;;6.57;78.17;102014.59;5033357;28;20226;-77
2024/02/02 05:58:35;;;;;;;19.33;10.07;;;;;;;6.58;77.97;102025.88;5033724;28;20677;-77
2024/02/02 06:01:01;;;;;;;14.90;10.27;;;;;;;6.58;78.58;102023.28;5032849;28;20214;-82
2024/02/02 06:03:27;;;;;;;20.20;10.03;;;;;;;6.67;77.69;102014.81;5031824;28;20226;-79
2024/02/02 06:05:56;;;;;;;18.87;9.60;;;;;;;6.89;77.81;102001.44;5034835;28;20264;-80
2024/02/02 06:08:22;;;;;;;16.93;10.00;;;;;;;6.96;77.72;102018.06;5034830;28;20340;-79
2024/02/02 06:10:48;;;;;;;16.23;10.20;;;;;;;6.92;77.36;102031.81;5035834;28;20203;-80
2024/02/02 06:13:17;;;;;;;14.60;9.07;;;;;;;6.92;77.00;102040.47;5032946;28;20198;-80
2024/02/02 06:15:43;;;;;;;16.17;9.47;;;;;;;6.96;76.46;102051.81;5033007;28;20241;-77
2024/02/02 06:18:09;;;;;;;18.27;10.50;;;;;;;6.68;77.85;102048.59;5033062;28;20210;-80
2024/02/02 06:20:36;;;;;;;16.53;9.23;;;;;;;6.85;77.69;102027.31;5035325;28;20202;-80
2024/02/02 06:23:04;;;;;;;14.23;8.90;;;;;;;6.95;78.44;101992.91;5035662;28;20293;-80
2024/02/02 06:25:31;;;;;;;17.53;8.00;;;;;;;6.87;77.89;101984.97;5034992;28;20260;-80
2024/02/02 06:27:57;;;;;;;15.20;8.57;;;;;;;6.79;79.13;101962.31;5033107;28;20210;-78
2024/02/02 06:30:24;;;;;;;12.63;9.13;;;;;;;6.63;79.32;101953.31;5032900;28;20237;-79
2024/02/02 06:32:57;;;;;;;16.70;8.77;;;;;;;6.82;78.98;101923.41;5031958;28;20587;-77
2024/02/02 06:35:23;;;;;;;21.03;8.87;;;;;;;6.75;79.06;101917.25;5032723;28;20257;-78
2024/02/02 06:37:49;;;;;;;16.47;8.30;;;;;;;6.82;79.77;101908.75;5032360;28;20210;-77
2024/02/02 06:40:17;;;;;;;13.50;8.33;;;;;;;6.75;80.35;101884.38;5032757;28;20296;-79
2024/02/02 06:42:43;;;;;;;13.03;8.50;;;;;;;6.61;81.72;101884.94;5033808;28;20210;-79
2024/02/02 06:45:10;;;;;;;16.90;9.00;;;;;;;6.59;82.22;101851.19;5035055;28;20428;-80
2024/02/02 06:47:38;;;;;;;13.93;7.80;;;;;;;6.31;81.90;101845.41;5032640;28;20245;-79
2024/02/02 06:50:05;;;;;;;11.63;8.20;;;;;;;6.61;82.01;101825.28;5033964;28;20218;-79
2024/02/02 06:52:31;;;;;;;20.73;9.33;;;;;;;6.25;82.54;101818.50;5025941;28;20206;-79
2024/02/02 06:54:57;;;;;;;12.40;9.67;;;;;;;6.62;82.41;101806.25;5027890;28;20694;-79
2024/02/02 06:57:26;;;;;;;15.90;9.73;;;;;;;6.62;81.28;101809.75;5031344;28;20770;-78
2024/02/02 06:59:55;;;;;;;13.37;9.07;;;;;;;6.71;80.92;101817.69;5031632;28;20202;-79
2024/02/02 07:02:24;;;;;;;13.63;9.67;;;;;;;6.86;80.94;101821.44;5030432;28;20680;-77
2024/02/02 07:04:51;;;;;;;23.10;10.30;;;;;;;6.81;80.21;101846.41;5030880;28;20664;-77
2024/02/02 07:07:18;;;;;;;17.57;9.70;;;;;;;6.80;80.38;101837.78;5031443;28;20206;-77
2024/02/02 07:09:51;;;;;;;14.57;8.80;;;;;;;6.88;79.47;101832.72;5032292;28;20253;-77
2024/02/02 07:12:42;;;;;;;14.17;8.47;;;;;;;6.86;82.10;101818.84;5031659;28;20596;-77
2024/02/02 07:15:15;;;;;;;15.93;8.73;;;;;;;6.93;79.74;101807.72;5032275;28;20233;-77
2024/02/02 07:17:41;;;;;;;13.13;8.13;;;;;;;7.12;79.83;101806.31;5032603;28;20224;-77
2024/02/02 07:20:10;;;;;;;17.50;8.33;;;;;;;6.93;78.53;101820.69;5032468;28;20237;-77
2024/02/02 07:22:38;;;;;;;14.47;7.27;;;;;;;6.90;78.56;101837.09;5032157;28;20240;-77
2024/02/02 07:25:12;;;;;;;13.70;7.87;;;;;;;6.94;78.93;101832.84;5033108;28;20212;-78
2024/02/02 07:27:55;;;;;;;13.83;7.87;;;;;;;6.81;79.08;101833.44;5033377;28;20211;-79
2024/02/02 07:30:51;;;;;;;15.60;7.77;;;;;;;6.73;78.41;101841.94;5034346;28;20261;-79
2024/02/02 07:33:22;;;;;;;16.17;7.20;;;;;;;6.74;78.61;101835.06;5031685;28;20202;-78
2024/02/02 07:35:49;;;;;;;12.23;7.30;;;;;;;6.81;78.87;101833.44;5037673;28;20225;-77
2024/02/02 07:38:40;;;;;;;10.40;6.17;;;;;;;6.75;77.95;101845.44;5014148;28;20231;-77
2024/02/02 07:41:08;;;;;;;9.43;5.90;;;;;;;6.44;78.29;101872.50;5011437;28;20207;-77
2024/02/02 07:43:36;;;;;;;16.53;6.87;;;;;;;6.81;78.69;101843.81;5024838;28;20206;-77
2024/02/02 07:46:03;;;;;;;15.93;6.00;;;;;;;6.87;78.14;101831.81;5030809;28;20230;-77
2024/02/02 07:48:30;;;;;;;12.80;5.63;;;;;;;6.86;77.42;101850.84;5031256;28;20225;-77
2024/02/02 07:50:56;;;;;;;14.50;5.40;;;;;;;6.93;78.07;101842.31;5031279;28;20701;-77
2024/02/02 07:53:24;;;;;;;11.87;6.37;;;;;;;6.86;78.24;101842.22;5033084;28;20268;-77
2024/02/02 07:55:50;;;;;;;9.33;4.93;;;;;;;6.73;77.82;101854.91;5034739;28;20276;-77
2024/02/02 07:58:20;;;;;;;9.03;5.60;;;;;;;6.92;77.65;101856.16;5034845;28;20233;-77
2024/02/02 08:00:48;;;;;;;11.37;5.37;;;;;;;6.62;78.00;101853.84;5034706;28;20234;-77
2024/02/02 08:03:14;;;;;;;11.33;4.50;;;;;;;6.76;78.88;101839.44;5034293;28;20243;-77
2024/02/02 08:05:41;;;;;;;9.43;5.07;;;;;;;7.00;78.23;101824.25;5035500;28;20245;-77
2024/02/02 08:08:07;;;;;;;11.23;4.33;;;;;;;6.76;78.51;101838.56;5034971;28;20581;-77
2024/02/02 08:10:34;;;;;;;12.30;5.97;;;;;;;6.93;78.28;101818.97;5034607;28;20261;-78
2024/02/02 08:13:00;;;;;;;8.20;4.23;;;;;;;6.95;77.59;101825.06;5036006;28;20404;-76
2024/02/02 08:15:27;;;;;;;14.10;5.00;;;;;;;6.94;78.01;101825.91;5015494;28;20284;-77
2024/02/02 08:17:55;;;;;;;12.93;4.47;;;;;;;6.85;77.81;101843.91;5029884;28;20581;-77
2024/02/02 08:20:21;;;;;;;11.30;4.57;;;;;;;6.82;77.58;101846.47;5043961;28;20231;-77
2024/02/02 08:22:47;;;;;;;11.07;5.00;;;;;;;6.60;78.75;101837.38;5035330;28;20198;-77
2024/02/02 08:25:14;;;;;;;12.77;4.27;;;;;;;6.75;78.96;101808.25;5035334;28;20292;-77
2024/02/02 08:27:40;;;;;;;8.07;4.30;;;;;;;6.71;79.22;101809.03;5034933;28;20202;-77
2024/02/02 08:30:09;;;;;;;9.10;4.00;;;;;;;6.65;78.43;101812.38;5034770;28;20732;-77
2024/02/02 08:32:37;;;;;;;7.57;4.10;;;;;;;6.69;77.98;101824.56;5034592;28;20210;-77
2024/02/02 08:35:05;;;;;;;10.47;4.93;;;;;;;6.70;78.97;101820.25;5035230;28;20229;-77
2024/02/02 08:37:32;;;;;;;10.80;3.77;;;;;;;7.01;77.82;101816.50;5034944;28;20209;-77
2024/02/02 08:39:58;;;;;;;8.67;3.80;;;;;;;7.05;78.18;101827.81;5035146;28;20207;-77
2024/02/02 08:42:25;;;;;;;10.53;3.87;;;;;;;7.18;77.82;101834.13;5035143;28;20245;-77
2024/02/02 08:44:52;;;;;;;12.60;4.73;;;;;;;7.08;77.44;101844.34;5035059;28;20209;-77
2024/02/02 08:47:19;;;;;;;9.77;4.03;;;;;;;7.11;77.51;101844.38;5035117;28;20613;-77
2024/02/02 08:49:48;;;;;;;11.77;3.80;;;;;;;6.72;77.05;101853.19;5035185;28;20614;-77
2024/02/02 08:52:31;;;;;;;10.80;3.73;;;;;;;7.10;77.80;101834.84;5034663;28;20248;-78
2024/02/02 08:54:57;;;;;;;7.30;3.37;;;;;;;7.21;77.03;101829.84;5034670;28;20628;-77
2024/02/02 08:57:34;;;;;;;12.37;3.97;;;;;;;7.38;76.47;101832.75;5034845;28;20747;-77
2024/02/02 09:00:12;;;;;;;11.03;3.60;;;;;;;7.09;76.29;101851.25;5034985;28;20253;-77
2024/02/02 09:03:05;;;;;;;13.70;3.60;;;;;;;7.50;76.03;101840.72;5034230;28;20206;-77
2024/02/02 09:05:49;;;;;;;11.70;4.43;;;;;;;7.56;75.54;101845.16;5034579;28;20283;-77
2024/02/02 09:08:27;;;;;;;10.40;4.40;;;;;;;7.46;75.68;101864.03;5034090;28;20244;-77
2024/02/02 09:11:16;;;;;;;12.07;4.20;;;;;;;7.53;74.83;101871.97;5033796;28;20864;-77
2024/02/02 09:13:44;;;;;;;14.60;4.60;;;;;;;7.62;75.32;101871.22;5034741;28;20285;-77
2024/02/02 09:16:13;;;;;;;10.90;4.40;;;;;;;7.36;74.64;101884.66;5033791;28;20293;-77
2024/02/02 09:18:41;;;;;;;6.03;4.40;;;;;;;7.64;75.32;101885.13;5034395;28;20253;-77
2024/02/02 09:21:09;;;;;;;12.77;5.50;;;;;;;7.73;75.08;101876.59;5034309;28;20244;-77
2024/02/02 09:23:39;;;;;;;10.17;4.73;;;;;;;7.75;74.59;101893.97;5034587;28;20199;-77
2024/02/02 09:26:11;;;;;;;11.53;5.00;;;;;;;7.55;74.50;101911.84;5034006;28;20229;-78
2024/02/02 09:28:41;;;;;;;9.33;4.87;;;;;;;7.63;74.35;101906.78;5042785;28;20200;-77
2024/02/02 09:31:11;;;;;;;14.33;4.83;;;;;;;7.71;74.83;101910.38;5025656;28;20253;-78
2024/02/02 09:33:46;;;;;;;12.10;5.67;;;;;;;7.80;74.75;101913.97;5026011;28;20198;-77
2024/02/02 09:36:13;;;;;;;14.87;5.53;;;;;;;7.61;74.13;101923.16;5034119;28;20221;-77
2024/02/02 09:38:41;;;;;;;9.23;4.63;;;;;;;7.41;74.81;101921.09;5033282;28;20660;-77
2024/02/02 09:41:49;;;;;;;11.80;5.70;;;;;;;7.69;74.69;101919.88;5033225;28;20195;-78
2024/02/02 09:44:36;;;;;;;8.50;5.53;;;;;;;7.47;74.44;101922.94;4995235;28;20199;-78
2024/02/02 09:47:19;;;;;;;9.47;5.60;;;;;;;7.55;74.29;101909.25;5033216;28;20767;-77
2024/02/02 09:49:54;;;;;;;10.03;5.03;;;;;;;7.74;74.12;101907.81;5034244;28;20226;-78
2024/02/02 09:52:35;;;;;;;12.13;6.17;;;;;;;7.71;73.76;101904.28;5033802;28;20210;-77
2024/02/02 09:55:14;;;;;;;11.87;6.13;;;;;;;7.90;74.20;101910.66;5034106;28;20271;-77
2024/02/02 09:57:47;;;;;;;13.47;5.77;;;;;;;8.04;74.13;101906.53;5033766;28;20657;-78
2024/02/02 10:00:24;;;;;;;13.10;5.77;;;;;;;7.44;75.01;101934.16;5033829;28;20198;-77
2024/02/02 10:03:07;;;;;;;12.10;5.13;;;;;;;7.57;74.50;101901.44;5033166;28;20205;-78
2024/02/02 10:05:46;;;;;;;9.77;5.37;;;;;;;7.88;74.23;101894.16;5033670;28;20627;-77
2024/02/02 10:08:36;;;;;;;10.17;5.60;;;;;;;7.95;74.10;101896.03;5033331;28;20723;-78
2024/02/02 10:11:23;;;;;;;12.33;6.70;;;;;;;7.90;73.91;101893.34;5022498;28;20702;-78
2024/02/02 10:14:04;;;;;;;12.37;5.93;;;;;;;8.06;73.62;101896.19;5027350;28;20206;-78
2024/02/02 10:16:41;;;;;;;11.23;6.30;;;;;;;8.01;73.94;101908.22;5032536;28;20794;-78
2024/02/02 10:19:35;;;;;;;11.63;6.93;;;;;;;8.03;73.86;101904.81;5033753;28;20201;-77
2024/02/02 10:22:20;;;;;;;13.80;6.00;;;;;;;7.93;73.67;101901.19;5032732;28;20250;-77
2024/02/02 10:25:03;;;;;;;16.17;6.50;;;;;;;7.73;74.77;101892.19;5032560;28;20253;-78
2024/02/02 10:27:54;;;;;;;9.33;6.53;;;;;;;7.47;75.66;101876.16;5030045;28;20210;-77
2024/02/02 10:30:31;;;;;;;12.63;6.50;;;;;;;7.56;75.62;101846.03;5031531;28;20229;-75
2024/02/02 10:33:18;;;;;;;15.67;6.73;;;;;;;7.56;75.37;101830.44;5031134;28;20202;-76
2024/02/02 10:35:56;;;;;;;9.93;5.97;;;;;;;7.41;76.14;101830.16;5031673;28;20222;-75
2024/02/02 10:38:37;;;;;;;11.67;6.80;;;;;;;7.67;76.13;101815.03;5033495;28;20252;-79
2024/02/02 10:41:25;;;;;;;12.70;6.77;;;;;;;7.84;75.84;101809.19;5038910;28;20209;-78
2024/02/02 10:44:09;;;;;;;13.43;7.10;;;;;;;7.88;75.32;101824.84;5041819;28;20684;-80
2024/02/02 10:46:45;;;;;;;16.10;6.63;;;;;;;7.88;75.19;101835.25;5014466;28;20574;-78
2024/02/02 10:49:28;;;;;;;11.27;6.40;;;;;;;7.79;75.65;101821.22;5022484;28;20672;-78
2024/02/02 10:52:05;;;;;;;12.63;5.73;;;;;;;7.73;75.92;101822.00;5039897;28;20244;-78
2024/02/02 10:54:41;;;;;;;13.73;6.83;;;;;;;7.73;76.53;101809.91;5042159;28;20233;-78
2024/02/02 10:57:24;;;;;;;14.03;7.73;;;;;;;7.70;77.09;101780.41;5037826;28;20222;-77
2024/02/02 11:00:07;;;;;;;15.10;7.87;;;;;;;7.80;77.68;101752.81;5039554;28;20203;-76
2024/02/02 11:02:41;;;;;;;10.47;7.10;;;;;;;7.78;76.84;101763.19;5023678;28;20301;-80
2024/02/02 11:05:18;;;;;;;10.10;5.83;;;;;;;8.06;77.03;101755.75;5013934;28;20261;-77
2024/02/02 11:07:51;;;;;;;14.90;6.60;;;;;;;7.89;76.49;101766.81;5025111;28;20669;-77
2024/02/02 11:10:27;;;;;;;15.57;6.70;;;;;;;7.55;79.21;101734.25;5032961;28;20265;-79
2024/02/02 11:13:04;;;;;;;12.77;6.60;;;;;;;7.76;78.85;101681.72;5032381;28;20205;-79
2024/02/02 11:15:46;;;;;;;15.50;6.73;;;;;;;8.08;77.51;101689.91;5034877;28;20233;-79
2024/02/02 11:18:31;;;;;;;9.93;5.83;;;;;;;8.15;76.16;101715.13;5032607;28;20221;-79
2024/02/02 11:21:17;;;;;;;13.37;5.83;;;;;;;8.11;77.22;101733.28;5031909;28;20194;-77
2024/02/02 11:23:50;;;;;;;10.43;6.93;;;;;;;8.05;76.63;101723.69;5030068;28;20200;-79
2024/02/02 11:26:22;;;;;;;16.17;6.00;;;;;;;8.04;77.13;101721.06;5012364;28;20597;-77
2024/02/02 11:29:04;;;;;;;13.83;6.27;;;;;;;8.02;77.40;101695.03;5027946;28;20597;-77
2024/02/02 11:31:39;;;;;;;11.17;6.07;;;;;;;7.95;77.25;101694.09;5023848;28;20231;-78
2024/02/02 11:34:14;;;;;;;10.47;6.30;;;;;;;7.96;78.25;101669.81;5031420;28;20202;-78
2024/02/02 11:36:59;;;;;;;21.10;7.13;;;;;;;7.70;79.62;101661.72;5036342;28;20226;-78